Time;durP1;ratioP1;P1;durP2;ratioP2;P2;SDS_P1;SDS_P2;PMS_P1;PMS_P2;Temp;Humidity;BMP_temperature;BMP_pressure;BME280_temperature;BME280_humidity;BME280_pressure;Samples;Min_cycle;Max_cycle;Signal;HPM_P1;HPM_P2
2022/07/13 00:00:23;;;;;;;3.10;0.60;;;;;;;20.66;100.00;102184.75;10415066;28;20060;-76
2022/07/13 00:05:25;;;;;;;0.05;0.05;;;;;;;20.72;100.00;102183.03;10414953;28;20041;-77
2022/07/13 00:10:27;;;;;;;0.75;0.30;;;;;;;20.66;100.00;102166.41;10398432;28;20049;-76
2022/07/13 00:15:29;;;;;;;0.60;0.60;;;;;;;20.47;100.00;102157.59;10415830;28;20077;-77
2022/07/13 00:20:31;;;;;;;1.08;0.68;;;;;;;20.71;100.00;102148.97;10414608;28;20045;-77
2022/07/13 00:25:33;;;;;;;2.00;1.05;;;;;;;20.65;100.00;102128.00;10398074;28;20045;-77
2022/07/13 00:30:34;;;;;;;0.77;0.50;;;;;;;20.66;100.00;102121.91;10397985;28;20099;-76
2022/07/13 00:35:36;;;;;;;0.82;0.30;;;;;;;20.63;100.00;102127.13;10413997;28;20045;-77
2022/07/13 00:40:38;;;;;;;1.85;1.15;;;;;;;20.23;100.00;102122.59;10414007;28;20060;-76
2022/07/13 00:45:40;;;;;;;1.17;0.77;;;;;;;20.71;100.00;102070.41;10414169;28;20049;-77
2022/07/13 00:50:41;;;;;;;1.27;0.98;;;;;;;21.04;100.00;102067.00;10397549;28;20056;-76
2022/07/13 00:55:46;;;;;;;0.95;0.63;;;;;;;21.08;100.00;102067.88;10418608;28;20069;-76
2022/07/13 01:00:48;;;;;;;0.80;0.80;;;;;;;20.61;100.00;102065.13;10405591;28;20144;-76
2022/07/13 01:05:51;;;;;;;1.08;0.55;;;;;;;20.51;100.00;102063.38;10405405;28;20050;-76
2022/07/13 01:10:53;;;;;;;0.50;0.35;;;;;;;20.66;100.00;102064.28;10405241;28;20046;-78
2022/07/13 01:15:55;;;;;;;0.65;0.57;;;;;;;20.64;100.00;102058.16;10404977;28;20420;-77
2022/07/13 01:20:57;;;;;;;0.50;0.50;;;;;;;20.34;100.00;102052.84;10421199;28;20041;-76
2022/07/13 01:26:00;;;;;;;0.17;0.10;;;;;;;20.63;100.00;102032.84;10421728;28;20049;-76
2022/07/13 01:31:02;;;;;;;2.05;0.95;;;;;;;20.54;100.00;102031.97;10420807;28;20041;-77
2022/07/13 01:36:04;;;;;;;0.93;0.50;;;;;;;20.45;100.00;102038.06;10404293;28;20045;-76
2022/07/13 01:41:07;;;;;;;0.52;0.47;;;;;;;20.54;100.00;102016.25;10404018;28;20056;-76
2022/07/13 01:46:10;;;;;;;1.33;0.93;;;;;;;20.78;100.00;102009.34;10403959;28;20091;-76
2022/07/13 01:51:11;;;;;;;0.25;0.22;;;;;;;20.73;100.00;102011.09;10420034;28;20051;-77
2022/07/13 01:56:16;;;;;;;1.58;0.80;;;;;;;20.44;100.00;102011.84;10403867;28;20052;-78
2022/07/13 02:01:18;;;;;;;0.43;0.22;;;;;;;20.38;100.00;102017.09;10403366;28;20045;-77
2022/07/13 02:06:22;;;;;;;0.20;0.15;;;;;;;20.52;100.00;102018.00;10420848;28;20132;-76
2022/07/13 02:11:24;;;;;;;0.43;0.40;;;;;;;20.37;100.00;102005.75;10402930;28;20053;-77
2022/07/13 02:16:26;;;;;;;0.40;0.22;;;;;;;20.28;100.00;101998.75;10402753;28;20115;-76
2022/07/13 02:21:27;;;;;;;0.80;0.38;;;;;;;20.41;100.00;101996.16;10402483;28;20493;-76
2022/07/13 02:26:29;;;;;;;0.55;0.40;;;;;;;20.36;100.00;101985.69;10418797;28;20068;-77
2022/07/13 02:31:33;;;;;;;2.50;0.52;;;;;;;20.12;100.00;101991.72;10420188;28;20041;-77
2022/07/13 02:36:37;;;;;;;0.35;0.30;;;;;;;20.19;100.00;101988.25;10419274;28;20041;-77
2022/07/13 02:41:39;;;;;;;0.68;0.35;;;;;;;20.05;100.00;101969.03;10436972;28;20484;-77
2022/07/13 02:46:43;;;;;;;0.65;0.35;;;;;;;20.09;100.00;101991.69;10420594;28;20064;-77
2022/07/13 02:51:45;;;;;;;0.20;0.20;;;;;;;20.09;100.00;101986.47;10415998;28;20056;-78
2022/07/13 02:56:47;;;;;;;0.45;0.28;;;;;;;19.90;100.00;101972.44;10430100;28;20056;-77
2022/07/13 03:01:49;;;;;;;0.52;0.40;;;;;;;19.84;100.00;101965.47;10432278;28;20053;-77
2022/07/13 03:06:51;;;;;;;0.77;0.73;;;;;;;19.91;100.00;101964.63;10434784;28;20053;-77
2022/07/13 03:11:53;;;;;;;1.05;0.50;;;;;;;20.09;100.00;101944.63;10428628;28;20053;-77
2022/07/13 03:16:55;;;;;;;0.47;0.30;;;;;;;20.12;100.00;101939.41;10431147;28;20071;-77
2022/07/13 03:21:57;;;;;;;0.50;0.40;;;;;;;20.20;100.00;101921.97;10392536;28;20046;-77
2022/07/13 03:26:59;;;;;;;0.45;0.30;;;;;;;20.06;100.00;101926.31;10410595;28;20132;-77
2022/07/13 03:32:01;;;;;;;0.35;0.25;;;;;;;20.10;100.00;101930.66;10424895;28;20046;-77
2022/07/13 03:37:04;;;;;;;0.32;0.32;;;;;;;20.18;100.00;101926.34;10423168;28;20050;-77
2022/07/13 03:42:06;;;;;;;0.38;0.38;;;;;;;20.38;100.00;101917.63;10424802;28;20104;-78
2022/07/13 03:47:09;;;;;;;0.17;0.17;;;;;;;20.32;100.00;101921.13;10409997;28;20071;-78
2022/07/13 03:52:11;;;;;;;0.75;0.30;;;;;;;20.33;100.00;101912.38;10392836;28;20049;-78
2022/07/13 03:57:12;;;;;;;0.28;0.28;;;;;;;20.50;100.00;101912.44;10409649;28;20092;-79
2022/07/13 04:02:15;;;;;;;0.47;0.28;;;;;;;20.52;100.00;101902.81;10410295;28;20046;-78
2022/07/13 04:07:17;;;;;;;0.98;0.63;;;;;;;20.45;100.00;101911.53;10410026;28;20046;-79
2022/07/13 04:12:21;;;;;;;1.02;0.50;;;;;;;20.72;100.00;101904.56;10409168;28;20528;-78
2022/07/13 04:17:23;;;;;;;0.50;0.32;;;;;;;20.75;99.57;101901.97;10409096;28;20485;-78
2022/07/13 04:22:25;;;;;;;0.30;0.13;;;;;;;20.93;95.85;101898.44;10408039;28;20056;-78
2022/07/13 04:27:27;;;;;;;1.67;0.50;;;;;;;20.96;97.52;101892.38;10408778;28;20048;-78
2022/07/13 04:32:29;;;;;;;1.42;0.60;;;;;;;21.20;96.61;101887.03;10408039;28;20045;-78
2022/07/13 04:37:34;;;;;;;0.55;0.30;;;;;;;21.03;100.00;101889.72;10408061;28;20041;-79
2022/07/13 04:42:37;;;;;;;0.68;0.68;;;;;;;21.10;100.00;101874.88;10407248;28;20057;-77
2022/07/13 04:47:39;;;;;;;0.30;0.30;;;;;;;21.15;100.00;101883.56;10408078;28;20091;-79
2022/07/13 04:52:42;;;;;;;1.00;0.65;;;;;;;21.14;100.00;101876.59;10396183;28;20084;-78
2022/07/13 04:57:44;;;;;;;0.50;0.40;;;;;;;21.05;100.00;101866.13;10391730;28;20052;-78
2022/07/13 05:02:48;;;;;;;1.60;0.47;;;;;;;21.22;100.00;101853.84;10406169;28;20041;-77
2022/07/13 05:07:50;;;;;;;1.27;0.60;;;;;;;21.17;100.00;101850.38;10407659;28;20050;-78
2022/07/13 05:12:52;;;;;;;1.13;0.60;;;;;;;21.12;100.00;101849.50;10391725;28;20048;-78
2022/07/13 05:18:14;;;;;;;1.63;1.10;;;;;;;21.24;100.00;101846.88;10407967;28;20048;-77
2022/07/13 05:23:16;;;;;;;0.52;0.47;;;;;;;21.19;100.00;101856.47;10408171;28;20053;-77
2022/07/13 05:28:19;;;;;;;1.13;0.63;;;;;;;21.22;100.00;101840.75;10405987;28;20061;-78
2022/07/13 05:33:22;;;;;;;1.00;0.68;;;;;;;21.29;100.00;101852.09;10407114;28;20046;-78
2022/07/13 05:38:25;;;;;;;5.00;1.00;;;;;;;21.48;100.00;101854.63;10404671;28;20042;-78
2022/07/13 05:43:28;;;;;;;2.97;1.15;;;;;;;21.41;100.00;101859.00;10418727;28;20049;-79
2022/07/13 05:48:31;;;;;;;0.52;0.40;;;;;;;21.63;100.00;101856.34;10406792;28;20052;-79
2022/07/13 05:53:33;;;;;;;0.93;0.70;;;;;;;21.68;100.00;101851.94;10409737;28;20380;-78
2022/07/13 05:58:35;;;;;;;1.85;0.63;;;;;;;21.74;100.00;101851.91;10408008;28;20180;-79
2022/07/13 06:03:42;;;;;;;0.52;0.40;;;;;;;21.86;100.00;101851.81;10419332;28;20511;-78
2022/07/13 06:08:44;;;;;;;1.05;0.90;;;;;;;22.03;100.00;101858.72;10401212;28;20041;-78
2022/07/13 06:13:49;;;;;;;3.42;0.60;;;;;;;22.02;100.00;101863.13;10406018;28;20049;-79
2022/07/13 06:18:51;;;;;;;0.50;0.50;;;;;;;22.10;100.00;101860.41;10404224;28;20124;-78
2022/07/13 06:23:53;;;;;;;1.27;0.60;;;;;;;22.36;100.00;101846.25;10411428;28;20037;-79
2022/07/13 06:28:55;;;;;;;0.75;0.50;;;;;;;22.61;98.00;101856.53;10411829;28;20072;-79
2022/07/13 06:33:57;;;;;;;0.25;0.20;;;;;;;22.68;97.00;101852.97;10408528;28;20041;-79
2022/07/13 06:38:59;;;;;;;0.38;0.38;;;;;;;22.58;96.05;101846.09;10411120;28;20037;-79
2022/07/13 06:44:00;;;;;;;0.40;0.30;;;;;;;22.73;97.86;101855.56;10405531;28;20041;-79
2022/07/13 06:49:02;;;;;;;0.55;0.25;;;;;;;22.67;94.16;101846.00;10409407;28;20033;-79
2022/07/13 06:54:04;;;;;;;1.05;0.60;;;;;;;22.74;95.27;101852.94;10406127;28;20045;-79
2022/07/13 06:59:06;;;;;;;0.75;0.45;;;;;;;22.80;95.81;101849.34;10395193;28;20072;-78
2022/07/13 07:04:08;;;;;;;0.28;0.28;;;;;;;23.05;96.71;101846.47;10411484;28;20132;-79
2022/07/13 07:09:10;;;;;;;0.60;0.40;;;;;;;23.05;93.91;101842.06;10411129;28;20076;-78
2022/07/13 07:14:12;;;;;;;0.50;0.50;;;;;;;23.35;93.77;101826.84;10411104;28;20060;-78
2022/07/13 07:19:13;;;;;;;1.25;0.70;;;;;;;23.38;95.16;101839.13;10410837;28;20062;-79
2022/07/13 07:24:28;;;;;;;0.65;0.30;;;;;;;24.01;92.59;101834.75;10407401;28;20037;-79
2022/07/13 07:29:30;;;;;;;0.40;0.30;;;;;;;24.35;87.46;101840.31;10421915;28;20072;-79
2022/07/13 07:34:33;;;;;;;0.40;0.40;;;;;;;24.71;85.46;101835.31;10414330;28;20041;-79
2022/07/13 07:39:36;;;;;;;0.45;0.40;;;;;;;24.47;82.50;101830.47;10413733;28;20112;-79
2022/07/13 07:44:38;;;;;;;0.52;0.47;;;;;;;25.70;75.19;101824.53;10406122;28;20374;-79
2022/07/13 07:49:40;;;;;;;0.93;0.70;;;;;;;25.97;74.39;101817.72;10389972;28;20057;-79
2022/07/13 07:54:42;;;;;;;0.77;0.73;;;;;;;26.16;79.12;101822.59;10392900;28;20069;-80
2022/07/13 07:59:44;;;;;;;0.47;0.47;;;;;;;26.47;74.44;101811.25;10409624;28;20453;-80
2022/07/13 08:04:47;;;;;;;0.40;0.28;;;;;;;26.02;74.30;101822.06;10410457;28;20456;-79
2022/07/13 08:09:49;;;;;;;0.68;0.52;;;;;;;26.49;67.27;101817.34;10409593;28;20045;-78
2022/07/13 08:14:51;;;;;;;1.40;0.60;;;;;;;27.50;67.72;101807.50;10391115;28;20092;-79
2022/07/13 08:19:52;;;;;;;3.38;1.83;;;;;;;27.15;67.06;101816.44;10404562;28;20053;-80
2022/07/13 08:24:54;;;;;;;0.85;0.80;;;;;;;27.68;67.61;101810.44;10404929;28;20041;-80
2022/07/13 08:29:57;;;;;;;2.15;0.80;;;;;;;27.59;61.44;101808.13;10400236;28;20045;-79
2022/07/13 08:40:20;;;;;;;2.05;0.70;;;;;;;27.10;65.81;101805.16;10398896;28;20447;-79
2022/07/13 08:45:24;;;;;;;0.75;0.55;;;;;;;27.90;62.08;101804.47;10428274;28;20064;-79
2022/07/13 08:50:27;;;;;;;0.47;0.25;;;;;;;27.86;68.12;101811.63;10396367;28;20071;-80
2022/07/13 08:55:29;;;;;;;0.00;0.00;;;;;;;28.23;65.58;101809.59;10412294;28;20518;-79
2022/07/13 09:00:31;;;;;;;1.27;0.85;;;;;;;28.15;68.39;101809.84;10414739;28;20037;-79
2022/07/13 09:05:33;;;;;;;0.10;0.10;;;;;;;28.92;63.42;101811.59;10413900;28;20464;-79
2022/07/13 09:10:50;;;;;;;1.92;0.93;;;;;;;29.47;66.42;101805.09;10396386;28;20057;-79
2022/07/13 09:16:12;;;;;;;1.92;1.13;;;;;;;28.58;62.21;101807.47;10422936;28;20047;-79
2022/07/13 09:21:20;;;;;;;0.75;0.75;;;;;;;28.79;61.29;101814.69;10420599;28;20073;-79
2022/07/13 09:26:22;;;;;;;0.90;0.45;;;;;;;28.68;65.19;101811.53;10421756;28;20113;-79
2022/07/13 09:31:24;;;;;;;0.88;0.43;;;;;;;28.86;63.68;101819.75;10419786;28;20041;-79
2022/07/13 09:36:26;;;;;;;0.93;0.65;;;;;;;29.43;64.10;101818.53;10417757;28;20052;-80
2022/07/13 09:41:34;;;;;;;1.38;0.50;;;;;;;29.18;65.63;101815.03;10398442;28;20053;-80
2022/07/13 09:46:35;;;;;;;0.73;0.65;;;;;;;29.57;62.29;101817.94;10406700;28;20044;-79
2022/07/13 09:51:37;;;;;;;0.47;0.30;;;;;;;29.39;63.08;101811.59;10407005;28;20451;-79
2022/07/13 09:56:49;;;;;;;1.30;0.98;;;;;;;28.87;61.70;101817.06;10401143;28;20051;-80
2022/07/13 10:01:51;;;;;;;0.68;0.50;;;;;;;29.29;60.18;101818.16;10417349;28;20046;-79
2022/07/13 10:06:53;;;;;;;0.32;0.30;;;;;;;29.48;60.14;101820.13;10394149;28;20038;-79
2022/07/13 10:11:55;;;;;;;0.40;0.40;;;;;;;29.82;62.05;101813.47;10400544;28;20041;-79
2022/07/13 10:17:14;;;;;;;0.65;0.50;;;;;;;29.64;62.11;101813.28;10412848;28;20149;-79
2022/07/13 10:22:20;;;;;;;2.85;0.95;;;;;;;29.44;58.64;101819.38;10411895;28;20064;-79
2022/07/13 10:27:27;;;;;;;1.88;0.40;;;;;;;29.26;59.61;101818.28;10411092;28;20040;-79
2022/07/13 10:32:33;;;;;;;0.65;0.30;;;;;;;30.09;59.66;101814.13;10412057;28;20049;-79
2022/07/13 10:37:56;;;;;;;0.40;0.30;;;;;;;29.90;53.46;101830.81;10417854;28;20038;-79
2022/07/13 10:43:06;;;;;;;0.85;0.65;;;;;;;29.70;49.78;101831.59;10407530;28;20068;-79
2022/07/13 10:48:12;;;;;;;2.28;0.50;;;;;;;29.60;49.15;101832.88;10402405;28;20053;-79
2022/07/13 10:53:18;;;;;;;0.55;0.38;;;;;;;30.02;53.06;101829.47;10391388;28;20136;-79
2022/07/13 10:58:39;;;;;;;0.30;0.30;;;;;;;29.80;47.62;101829.44;10397102;28;20092;-79
2022/07/13 11:03:46;;;;;;;0.93;0.30;;;;;;;29.51;45.11;101827.97;10405247;28;20052;-79
2022/07/13 11:09:13;;;;;;;1.10;0.45;;;;;;;29.92;46.87;101812.16;10393485;28;20053;-82
2022/07/13 11:14:41;;;;;;;0.35;0.30;;;;;;;30.52;45.51;101819.41;10397078;28;20037;-79
2022/07/13 11:19:56;;;;;;;2.83;1.08;;;;;;;29.68;43.84;101814.00;10388614;28;20042;-80
2022/07/13 11:25:15;;;;;;;0.05;0.05;;;;;;;30.42;46.68;101812.75;10383589;28;20452;-80
2022/07/13 11:30:26;;;;;;;0.25;0.20;;;;;;;30.15;44.55;101813.00;10390722;28;20386;-81
2022/07/13 11:35:28;;;;;;;0.63;0.30;;;;;;;30.19;43.70;101809.31;10397750;28;20064;-80
2022/07/13 11:40:31;;;;;;;0.52;0.20;;;;;;;30.73;47.10;101817.59;10381376;28;20046;-79
2022/07/13 11:45:33;;;;;;;0.30;0.30;;;;;;;30.50;46.20;101829.22;10397231;28;20042;-79
2022/07/13 11:50:41;;;;;;;0.35;0.35;;;;;;;30.22;47.52;101814.47;10382467;28;20053;-80
2022/07/13 11:55:43;;;;;;;0.75;0.30;;;;;;;31.10;50.69;101807.09;10404478;28;20046;-80
2022/07/13 12:00:45;;;;;;;0.20;0.10;;;;;;;30.82;53.22;101803.91;10386697;28;20046;-80
2022/07/13 12:05:49;;;;;;;0.20;0.20;;;;;;;30.44;50.48;101809.09;10410479;28;20061;-79
2022/07/13 12:10:51;;;;;;;0.50;0.30;;;;;;;30.68;50.65;101796.53;10405248;28;20041;-79
2022/07/13 12:15:53;;;;;;;0.35;0.35;;;;;;;30.33;49.46;101798.06;10403086;28;20059;-79
2022/07/13 12:20:57;;;;;;;0.85;0.47;;;;;;;30.72;51.88;101804.38;10408273;28;20048;-80
2022/07/13 12:26:06;;;;;;;0.63;0.35;;;;;;;29.39;45.19;101824.00;10401412;28;20041;-78
2022/07/13 12:31:09;;;;;;;0.25;0.15;;;;;;;29.51;50.23;101822.66;10404077;28;20173;-79
2022/07/13 12:36:12;;;;;;;1.65;0.43;;;;;;;29.85;48.73;101805.34;10379749;28;20045;-79
2022/07/13 12:41:26;;;;;;;0.10;0.10;;;;;;;30.02;47.22;101813.53;10386199;28;20047;-78
2022/07/13 12:46:50;;;;;;;0.15;0.10;;;;;;;30.28;43.94;101816.84;10399933;28;20416;-79
2022/07/13 12:51:53;;;;;;;0.52;0.22;;;;;;;30.26;40.78;101826.72;10409734;28;20049;-78
2022/07/13 12:56:55;;;;;;;0.22;0.22;;;;;;;30.39;39.24;101827.03;10415294;28;20408;-80
2022/07/13 13:01:58;;;;;;;0.10;0.10;;;;;;;30.97;41.17;101820.94;10407760;28;20572;-79
2022/07/13 13:07:00;;;;;;;3.13;0.30;;;;;;;30.24;36.45;101820.59;10427609;28;20437;-78
2022/07/13 13:12:01;;;;;;;0.00;0.00;;;;;;;30.63;40.34;101819.81;10430447;28;20064;-79
2022/07/13 13:17:03;;;;;;;0.03;0.03;;;;;;;29.87;41.81;101843.34;10429526;28;20123;-80
2022/07/13 13:22:06;;;;;;;0.65;0.52;;;;;;;29.16;39.87;101844.28;10439702;28;20385;-79
2022/07/13 13:27:07;;;;;;;0.10;0.10;;;;;;;29.36;43.33;101842.69;10420230;28;20037;-80
2022/07/13 13:32:28;;;;;;;0.05;0.05;;;;;;;29.71;41.00;101846.63;10426856;28;20389;-81
2022/07/13 13:37:29;;;;;;;0.00;0.00;;;;;;;30.24;41.29;101839.19;10441164;28;20057;-80
2022/07/13 13:42:32;;;;;;;0.77;0.40;;;;;;;29.84;39.94;101840.81;10440349;28;20049;-81
2022/07/13 13:47:54;;;;;;;0.80;0.08;;;;;;;29.77;40.52;101845.53;10399125;28;20045;-80
2022/07/13 13:52:55;;;;;;;0.10;0.10;;;;;;;29.20;40.05;101851.19;10408970;28;20049;-79
2022/07/13 13:57:57;;;;;;;0.10;0.10;;;;;;;29.28;41.46;101842.97;10398198;28;20034;-80
2022/07/13 14:02:59;;;;;;;0.10;0.10;;;;;;;29.56;38.64;101856.03;10409278;28;20151;-80
2022/07/13 14:08:00;;;;;;;0.00;0.00;;;;;;;29.24;38.24;101850.19;10422055;28;20481;-80
2022/07/13 14:13:02;;;;;;;0.10;0.10;;;;;;;29.56;40.01;101845.44;10408850;28;20068;-81
2022/07/13 14:18:04;;;;;;;2.08;0.47;;;;;;;29.62;41.78;101849.63;10410189;28;20045;-79
2022/07/13 14:23:06;;;;;;;0.20;0.10;;;;;;;29.21;42.41;101852.09;10408629;28;20497;-80
2022/07/13 14:28:07;;;;;;;0.00;0.00;;;;;;;28.93;44.68;101847.81;10411656;28;20037;-81
2022/07/13 14:33:16;;;;;;;0.43;0.38;;;;;;;28.57;41.84;101845.50;10411695;28;20133;-80
2022/07/13 14:38:18;;;;;;;0.25;0.25;;;;;;;28.89;44.04;101838.22;10409157;28;20052;-79
2022/07/13 14:43:33;;;;;;;0.30;0.28;;;;;;;28.97;47.53;101842.31;10407736;28;20049;-80
2022/07/13 14:48:35;;;;;;;0.00;0.00;;;;;;;29.06;46.65;101843.78;10411367;28;20413;-80
2022/07/13 14:54:16;;;;;;;0.03;0.03;;;;;;;28.95;46.16;101840.66;10411415;28;20134;-80
2022/07/13 14:59:18;;;;;;;0.20;0.20;;;;;;;28.18;53.31;101845.03;10401735;28;20401;-81
2022/07/13 15:04:19;;;;;;;0.00;0.00;;;;;;;28.62;55.43;101838.28;10410850;28;20053;-80
2022/07/13 15:09:22;;;;;;;0.25;0.15;;;;;;;28.17;57.48;101845.97;10411185;28;20045;-80
2022/07/13 15:14:44;;;;;;;0.57;0.22;;;;;;;28.50;57.00;101845.72;10409471;28;20053;-80
2022/07/13 15:20:01;;;;;;;0.20;0.15;;;;;;;28.27;53.80;101848.28;10409628;28;20398;-81
2022/07/13 15:25:08;;;;;;;0.00;0.00;;;;;;;28.12;54.57;101849.69;10413057;28;20041;-80
2022/07/13 15:30:10;;;;;;;0.20;0.20;;;;;;;28.32;57.31;101846.38;10395355;28;20041;-81
2022/07/13 15:35:12;;;;;;;0.00;0.00;;;;;;;27.98;56.46;101843.03;10416912;28;20048;-80
2022/07/13 15:40:14;;;;;;;1.15;0.55;;;;;;;27.82;54.95;101847.94;10408834;28;20049;-80
2022/07/13 15:45:15;;;;;;;0.38;0.13;;;;;;;27.70;57.25;101854.47;10409385;28;20042;-80
2022/07/13 15:50:17;;;;;;;0.20;0.20;;;;;;;27.78;56.45;101856.03;10396456;28;20049;-79
2022/07/13 15:55:19;;;;;;;0.30;0.28;;;;;;;27.52;56.59;101853.28;10408690;28;20049;-80
2022/07/13 16:00:21;;;;;;;0.22;0.10;;;;;;;27.43;57.92;101853.56;10407282;28;20063;-79
2022/07/13 16:05:23;;;;;;;2.55;0.70;;;;;;;27.58;58.84;101854.03;10399732;28;20132;-80
2022/07/13 16:10:25;;;;;;;0.10;0.10;;;;;;;27.09;58.73;101851.88;10408912;28;20049;-79
2022/07/13 16:15:28;;;;;;;0.55;0.35;;;;;;;27.37;58.93;101846.66;10393060;28;20525;-80
2022/07/13 16:20:30;;;;;;;0.10;0.10;;;;;;;27.40;62.66;101856.25;10385486;28;20053;-79
2022/07/13 16:25:33;;;;;;;0.52;0.52;;;;;;;26.67;58.58;101860.06;10373016;28;20052;-79
2022/07/13 16:30:34;;;;;;;0.28;0.28;;;;;;;26.20;59.64;101865.66;10392564;28;20037;-80
2022/07/13 16:35:36;;;;;;;0.00;0.00;;;;;;;26.48;56.93;101873.72;10416883;28;20041;-79
2022/07/13 16:40:39;;;;;;;0.40;0.20;;;;;;;26.64;59.75;101874.22;10405822;28;20061;-79
2022/07/13 16:45:40;;;;;;;0.10;0.10;;;;;;;26.31;57.17;101878.59;10404838;28;20049;-79
2022/07/13 16:50:42;;;;;;;0.13;0.10;;;;;;;25.98;59.15;101888.13;10407013;28;20049;-79
2022/07/13 16:55:43;;;;;;;0.28;0.28;;;;;;;25.78;56.84;101895.63;10406637;28;20520;-80
2022/07/13 17:00:45;;;;;;;0.17;0.17;;;;;;;25.42;57.11;101903.44;10404597;28;20048;-78
2022/07/13 17:05:53;;;;;;;0.20;0.20;;;;;;;25.35;57.96;101886.81;10406710;28;20117;-79
2022/07/13 17:10:56;;;;;;;0.00;0.00;;;;;;;25.38;59.58;101901.72;10395450;28;20060;-79
2022/07/13 17:16:00;;;;;;;0.00;0.00;;;;;;;25.54;65.82;101892.63;10409381;28;20045;-79
2022/07/13 17:21:03;;;;;;;0.17;0.08;;;;;;;25.28;61.62;101895.75;10413840;28;20053;-79
2022/07/13 17:26:05;;;;;;;0.50;0.30;;;;;;;24.89;61.56;101903.53;10407361;28;20052;-79
2022/07/13 17:31:07;;;;;;;0.55;0.10;;;;;;;24.89;62.67;101904.41;10410927;28;20056;-79
2022/07/13 17:36:09;;;;;;;0.43;0.43;;;;;;;24.78;65.33;101903.72;10412359;28;20481;-79
2022/07/13 17:41:11;;;;;;;0.10;0.10;;;;;;;24.69;66.07;101902.97;10406759;28;20544;-79
2022/07/13 17:46:13;;;;;;;0.00;0.00;;;;;;;24.38;66.99;101914.03;10428635;28;20041;-79
2022/07/13 17:51:15;;;;;;;0.40;0.25;;;;;;;24.21;69.43;101913.41;10412943;28;20099;-79
2022/07/13 17:56:19;;;;;;;0.00;0.00;;;;;;;24.12;70.23;101924.06;10383559;28;20084;-79
2022/07/13 18:01:21;;;;;;;0.10;0.10;;;;;;;24.18;73.23;101921.34;10412394;28;20496;-79
2022/07/13 18:06:23;;;;;;;0.30;0.30;;;;;;;23.81;75.02;101927.97;10411847;28;20099;-79
2022/07/13 18:11:24;;;;;;;0.32;0.30;;;;;;;23.53;73.96;101927.44;10411986;28;20054;-79
2022/07/13 18:16:28;;;;;;;0.05;0.05;;;;;;;23.39;74.27;101930.22;10413616;28;20049;-79
2022/07/13 18:21:30;;;;;;;0.20;0.20;;;;;;;23.28;76.01;101933.88;10413498;28;20053;-79
2022/07/13 18:26:35;;;;;;;2.55;0.30;;;;;;;23.26;78.52;101940.91;10413218;28;20570;-79
2022/07/13 18:31:37;;;;;;;0.00;0.00;;;;;;;23.28;76.26;101936.50;10411056;28;20045;-79
2022/07/13 18:36:38;;;;;;;0.52;0.17;;;;;;;23.06;77.92;101943.69;10411911;28;20500;-79
2022/07/13 18:41:42;;;;;;;0.10;0.10;;;;;;;22.68;79.24;101951.91;10408459;28;20491;-79
2022/07/13 18:46:43;;;;;;;1.10;0.25;;;;;;;22.62;79.91;101943.22;10410245;28;20065;-79
2022/07/13 18:51:45;;;;;;;0.40;0.10;;;;;;;22.48;82.54;101945.94;10397396;28;20425;-79
2022/07/13 18:56:47;;;;;;;0.25;0.25;;;;;;;22.36;83.12;101951.25;10397976;28;20124;-80
2022/07/13 19:01:51;;;;;;;0.35;0.32;;;;;;;22.10;85.87;101952.28;10407520;28;20515;-79
2022/07/13 19:06:52;;;;;;;0.43;0.38;;;;;;;21.91;86.64;101956.75;10413418;28;20095;-81
2022/07/13 19:11:54;;;;;;;0.13;0.13;;;;;;;21.68;90.43;101956.84;10409551;28;20064;-81
2022/07/13 19:16:56;;;;;;;0.10;0.10;;;;;;;21.29;94.69;101956.03;10410574;28;20167;-81
2022/07/13 19:21:57;;;;;;;0.55;0.30;;;;;;;21.18;96.19;101961.31;10410068;28;20045;-81
2022/07/13 19:27:14;;;;;;;0.03;0.03;;;;;;;21.06;98.26;101962.19;10410949;28;20050;-80
2022/07/13 19:32:16;;;;;;;0.47;0.20;;;;;;;21.02;99.16;101963.09;10402397;28;20042;-81
2022/07/13 19:37:17;;;;;;;0.22;0.22;;;;;;;20.69;100.00;101984.00;10406694;28;20045;-81
2022/07/13 19:42:19;;;;;;;0.20;0.20;;;;;;;20.41;100.00;101993.53;10408408;28;20439;-81
2022/07/13 19:47:20;;;;;;;0.10;0.10;;;;;;;20.26;100.00;102000.50;10410068;28;20481;-81
2022/07/13 19:52:22;;;;;;;0.20;0.20;;;;;;;19.93;100.00;102007.31;10400771;28;20048;-81
2022/07/13 19:57:24;;;;;;;0.10;0.10;;;;;;;19.61;100.00;102015.88;10386498;28;20041;-80
2022/07/13 20:02:26;;;;;;;0.20;0.20;;;;;;;19.72;100.00;102015.94;10378271;28;20053;-80
2022/07/13 20:07:28;;;;;;;0.43;0.22;;;;;;;19.58;100.00;102026.28;10386807;28;20567;-80
2022/07/13 20:12:30;;;;;;;0.20;0.17;;;;;;;19.52;100.00;102026.25;10417468;28;20045;-80
2022/07/13 20:17:32;;;;;;;0.32;0.22;;;;;;;19.31;100.00;102030.47;10409151;28;20049;-79
2022/07/13 20:22:34;;;;;;;0.08;0.00;;;;;;;19.24;100.00;102043.47;10409168;28;20049;-80
2022/07/13 20:27:36;;;;;;;0.25;0.10;;;;;;;19.03;100.00;102032.84;10409205;28;20042;-80
2022/07/13 20:32:38;;;;;;;0.10;0.10;;;;;;;18.83;100.00;102045.72;10410057;28;20103;-80
2022/07/13 20:37:40;;;;;;;1.33;0.55;;;;;;;18.69;100.00;102048.16;10410109;28;20128;-80
2022/07/13 20:42:42;;;;;;;0.00;0.00;;;;;;;18.59;100.00;102056.75;10408324;28;20508;-80
2022/07/13 20:47:44;;;;;;;0.10;0.10;;;;;;;18.31;100.00;102056.44;10409094;28;20060;-80
2022/07/13 20:52:45;;;;;;;0.00;0.00;;;;;;;18.19;100.00;102053.69;10409633;28;20069;-80
2022/07/13 20:57:47;;;;;;;0.55;0.10;;;;;;;18.06;100.00;102058.72;10408841;28;20439;-80
2022/07/13 21:02:49;;;;;;;0.03;0.03;;;;;;;17.88;100.00;102071.50;10407683;28;20057;-80
2022/07/13 21:07:51;;;;;;;0.00;0.00;;;;;;;17.73;100.00;102065.19;10404402;28;20584;-79
2022/07/13 21:12:52;;;;;;;0.45;0.43;;;;;;;17.64;100.00;102080.69;10403047;28;20049;-79
2022/07/13 21:17:54;;;;;;;0.30;0.25;;;;;;;17.56;100.00;102090.13;10406968;28;20045;-79
2022/07/13 21:22:56;;;;;;;0.03;0.00;;;;;;;17.37;100.00;102096.75;10405236;28;20045;-79
2022/07/13 21:27:58;;;;;;;1.75;0.80;;;;;;;17.32;100.00;102091.47;10398353;28;20033;-79
2022/07/13 21:33:00;;;;;;;0.00;0.00;;;;;;;17.22;100.00;102097.38;10422185;28;21245;-79
2022/07/13 21:38:02;;;;;;;0.08;0.08;;;;;;;17.09;100.00;102093.69;10405400;28;20334;-79
2022/07/13 21:43:04;;;;;;;0.00;0.00;;;;;;;17.22;100.00;102097.38;10412777;28;20041;-79
2022/07/13 21:48:06;;;;;;;0.10;0.05;;;;;;;17.22;100.00;102099.97;10389274;28;20038;-79
2022/07/13 21:53:07;;;;;;;0.00;0.00;;;;;;;17.06;100.00;102104.91;10410494;28;20374;-79
2022/07/13 21:58:09;;;;;;;0.00;0.00;;;;;;;16.76;100.00;102111.25;10400556;28;20045;-79
2022/07/13 22:03:12;;;;;;;0.00;0.00;;;;;;;16.64;100.00;102111.03;10406855;28;20139;-79
2022/07/13 22:08:14;;;;;;;0.00;0.00;;;;;;;16.45;100.00;102110.63;10415228;28;20045;-79
2022/07/13 22:13:53;;;;;;;0.03;0.00;;;;;;;16.40;100.00;102107.06;10404534;28;20567;-79
2022/07/13 22:19:32;;;;;;;0.00;0.00;;;;;;;16.28;100.00;102109.41;10409765;28;20057;-79
2022/07/13 22:25:12;;;;;;;0.00;0.00;;;;;;;16.22;100.00;102117.97;10414661;28;20057;-79
2022/07/13 22:30:51;;;;;;;0.00;0.00;;;;;;;16.23;100.00;102124.94;10391702;28;20060;-79
2022/07/13 22:36:30;;;;;;;0.60;0.25;;;;;;;16.32;100.00;102124.25;10414430;28;20049;-79
2022/07/13 22:42:09;;;;;;;0.00;0.00;;;;;;;16.26;100.00;102114.56;10405684;28;20224;-79
2022/07/13 22:47:48;;;;;;;0.00;0.00;;;;;;;16.10;100.00;102108.16;10408982;28;20041;-79
2022/07/13 22:53:28;;;;;;;0.00;0.00;;;;;;;16.03;100.00;102095.88;10415270;28;20144;-79
2022/07/13 22:59:07;;;;;;;0.00;0.00;;;;;;;15.75;100.00;102115.09;10404263;28;20038;-79
2022/07/13 23:04:46;;;;;;;0.00;0.00;;;;;;;15.68;100.00;102116.66;10413569;28;20124;-79
2022/07/13 23:10:25;;;;;;;0.38;0.00;;;;;;;15.13;100.00;102091.09;10411985;28;20457;-79
2022/07/13 23:16:08;;;;;;;0.00;0.00;;;;;;;15.12;100.00;102112.69;10410083;28;20402;-79
2022/07/13 23:21:47;;;;;;;0.52;0.20;;;;;;;15.28;100.00;102106.16;10410629;28;20060;-79